Time;durP1;ratioP1;P1;durP2;ratioP2;P2;SDS_P1;SDS_P2;PMS_P1;PMS_P2;Temp;Humidity;BMP_temperature;BMP_pressure;BME280_temperature;BME280_humidity;BME280_pressure;Samples;Min_cycle;Max_cycle;Signal;HPM_P1;HPM_P2
2023/06/02 00:02:21;;;;;;;9.55;5.95;;;17.70;62.90;;;;;;6271306;28;20195;-78
2023/06/02 00:05:25;;;;;;;9.27;7.30;;;17.70;63.20;;;;;;6272485;28;20049;-78
2023/06/02 00:08:28;;;;;;;9.57;6.07;;;17.70;63.50;;;;;;6270764;28;20325;-78
2023/06/02 00:11:34;;;;;;;9.40;6.63;;;17.60;63.70;;;;;;6272197;28;20127;-78
2023/06/02 00:14:37;;;;;;;12.40;6.65;;;17.60;64.00;;;;;;6272096;28;20053;-77
2023/06/02 00:17:39;;;;;;;10.18;7.10;;;17.50;64.10;;;;;;6263945;28;20427;-77
2023/06/02 00:20:42;;;;;;;9.63;6.03;;;17.50;64.40;;;;;;6271524;28;20076;-77
2023/06/02 00:23:45;;;;;;;11.30;7.65;;;17.40;64.70;;;;;;6266384;28;20430;-78
2023/06/02 00:26:47;;;;;;;8.25;6.78;;;17.30;65.00;;;;;;6267695;28;20053;-77
2023/06/02 00:29:50;;;;;;;8.70;6.55;;;17.30;65.30;;;;;;6262439;28;20086;-77
2023/06/02 00:32:52;;;;;;;8.57;6.00;;;17.20;65.50;;;;;;6263417;28;20507;-77
2023/06/02 00:35:54;;;;;;;11.25;6.80;;;17.20;65.90;;;;;;6263269;28;20449;-77
2023/06/02 00:38:57;;;;;;;8.50;6.60;;;17.10;66.20;;;;;;6258999;28;20063;-77
2023/06/02 00:42:00;;;;;;;9.93;6.28;;;17.10;66.60;;;;;;6262471;28;20576;-77
2023/06/02 00:45:02;;;;;;;9.50;6.90;;;17.00;66.90;;;;;;6264600;28;20040;-77
2023/06/02 00:48:04;;;;;;;13.95;7.03;;;17.00;67.10;;;;;;6262802;28;20041;-76
2023/06/02 00:51:06;;;;;;;7.22;6.43;;;16.90;67.50;;;;;;6262580;28;20063;-77
2023/06/02 00:54:10;;;;;;;13.68;7.38;;;16.80;67.90;;;;;;6264049;28;20056;-77
2023/06/02 00:57:11;;;;;;;11.95;6.32;;;16.70;68.40;;;;;;6265092;28;20049;-77
2023/06/02 01:00:14;;;;;;;9.43;6.07;;;16.70;68.80;;;;;;6263150;28;20048;-77
2023/06/02 01:03:16;;;;;;;7.50;6.47;;;16.60;69.20;;;;;;6264278;28;20045;-77
2023/06/02 01:06:22;;;;;;;14.98;7.55;;;16.50;69.60;;;;;;6237942;28;20140;-77
2023/06/02 01:09:26;;;;;;;11.73;7.38;;;16.50;70.10;;;;;;6238960;28;20053;-77
2023/06/02 01:12:28;;;;;;;12.45;8.23;;;16.40;70.50;;;;;;6239483;28;20519;-77
2023/06/02 01:15:29;;;;;;;13.40;6.95;;;16.30;70.70;;;;;;6240343;28;22816;-77
2023/06/02 01:18:35;;;;;;;10.00;7.57;;;16.30;71.10;;;;;;6239687;28;20072;-77
2023/06/02 01:21:39;;;;;;;14.52;7.75;;;16.20;71.50;;;;;;6258191;28;20049;-76
2023/06/02 01:24:43;;;;;;;7.20;6.38;;;16.20;71.90;;;;;;6264510;28;20033;-77
2023/06/02 01:27:45;;;;;;;11.05;6.97;;;16.10;72.20;;;;;;6264005;28;20094;-77
2023/06/02 01:30:47;;;;;;;13.50;6.60;;;16.00;72.50;;;;;;6261571;28;20056;-77
2023/06/02 01:33:56;;;;;;;10.98;8.23;;;16.00;73.00;;;;;;6263467;28;20060;-77
2023/06/02 01:37:00;;;;;;;8.90;6.50;;;15.90;73.50;;;;;;6263824;28;20068;-77
2023/06/02 01:40:04;;;;;;;11.30;7.97;;;15.90;73.90;;;;;;6262045;28;20033;-77
2023/06/02 01:43:07;;;;;;;10.20;7.72;;;15.80;74.40;;;;;;6271122;28;20418;-77
2023/06/02 01:46:10;;;;;;;13.82;8.43;;;15.70;74.70;;;;;;6271612;28;20048;-77
2023/06/02 01:49:16;;;;;;;11.30;8.02;;;15.60;75.40;;;;;;6271821;28;20048;-77
2023/06/02 01:52:17;;;;;;;7.90;6.55;;;15.50;75.70;;;;;;6272279;28;20111;-77
2023/06/02 01:55:20;;;;;;;12.30;7.50;;;15.50;76.10;;;;;;6272509;28;20045;-77
2023/06/02 01:58:23;;;;;;;9.73;8.30;;;15.40;77.00;;;;;;6273765;28;20048;-76
2023/06/02 02:01:27;;;;;;;12.48;7.93;;;15.40;76.60;;;;;;6272259;28;20049;-76
2023/06/02 02:04:29;;;;;;;11.07;7.93;;;15.30;76.90;;;;;;6272135;28;20114;-77
2023/06/02 02:07:31;;;;;;;15.43;8.43;;;15.30;77.20;;;;;;6272148;28;20056;-77
2023/06/02 02:10:34;;;;;;;8.18;7.10;;;15.20;77.60;;;;;;6272423;28;20049;-77
2023/06/02 02:13:35;;;;;;;12.35;9.50;;;15.20;78.10;;;;;;6272307;28;20507;-77
2023/06/02 02:16:37;;;;;;;10.52;7.30;;;15.10;78.40;;;;;;6271825;28;20052;-77
2023/06/02 02:19:38;;;;;;;13.05;7.85;;;15.00;78.70;;;;;;6271809;28;20122;-77
2023/06/02 02:22:40;;;;;;;9.65;6.70;;;15.00;78.90;;;;;;6272685;28;20055;-77
2023/06/02 02:25:43;;;;;;;10.15;7.60;;;14.90;79.20;;;;;;6271923;28;20064;-77
2023/06/02 02:28:45;;;;;;;14.38;11.05;;;14.80;79.50;;;;;;6267370;28;20131;-77
2023/06/02 02:31:47;;;;;;;9.80;7.40;;;14.80;80.00;;;;;;6246714;28;20042;-77
2023/06/02 02:34:49;;;;;;;9.07;6.95;;;14.70;80.30;;;;;;6247612;28;20045;-77
2023/06/02 02:37:50;;;;;;;13.60;7.97;;;14.60;80.70;;;;;;6246529;28;20056;-77
2023/06/02 02:40:53;;;;;;;9.85;7.30;;;14.60;81.00;;;;;;6250120;28;20056;-77
2023/06/02 02:43:55;;;;;;;11.05;8.18;;;14.60;81.50;;;;;;6247650;28;20045;-77
2023/06/02 02:46:58;;;;;;;10.02;7.80;;;14.50;81.80;;;;;;6248513;28;20496;-77
2023/06/02 02:50:00;;;;;;;8.75;7.03;;;14.40;82.10;;;;;;6248231;28;20045;-77
2023/06/02 02:53:02;;;;;;;9.65;8.32;;;14.40;82.60;;;;;;6249106;28;20053;-78
2023/06/02 02:56:06;;;;;;;13.68;8.45;;;14.30;83.10;;;;;;6248348;28;20121;-78
2023/06/02 02:59:08;;;;;;;10.73;8.45;;;14.30;83.50;;;;;;6247963;28;20045;-78
2023/06/02 03:02:10;;;;;;;12.32;8.32;;;14.20;84.00;;;;;;6246542;28;20655;-77
2023/06/02 03:05:13;;;;;;;13.02;7.95;;;14.00;84.60;;;;;;6244047;28;20046;-77
2023/06/02 03:08:15;;;;;;;11.40;8.85;;;13.90;85.40;;;;;;6245932;28;20038;-77
2023/06/02 03:11:18;;;;;;;12.00;9.18;;;13.90;86.20;;;;;;6246513;28;20057;-77
2023/06/02 03:14:22;;;;;;;12.43;8.73;;;13.80;87.10;;;;;;6246180;28;20603;-77
2023/06/02 03:17:24;;;;;;;16.85;10.40;;;13.80;87.80;;;;;;6265927;28;20462;-77
2023/06/02 03:20:26;;;;;;;10.77;8.88;;;13.80;88.40;;;;;;6271474;28;20041;-77
2023/06/02 03:23:28;;;;;;;16.60;9.18;;;13.80;88.80;;;;;;6271790;28;20461;-77
2023/06/02 03:26:31;;;;;;;13.07;8.85;;;13.70;89.10;;;;;;6272218;28;20411;-77
2023/06/02 03:29:32;;;;;;;9.93;7.28;;;13.70;89.60;;;;;;6274007;28;20068;-78
2023/06/02 03:32:34;;;;;;;16.80;7.88;;;13.70;89.80;;;;;;6275192;28;20048;-77
2023/06/02 03:35:36;;;;;;;13.52;8.45;;;13.70;90.10;;;;;;6274957;28;20041;-77
2023/06/02 03:38:38;;;;;;;9.60;7.85;;;13.70;90.30;;;;;;6275358;28;20049;-77
2023/06/02 03:41:41;;;;;;;8.57;7.75;;;13.70;90.40;;;;;;6275200;28;20076;-77
2023/06/02 03:44:43;;;;;;;10.65;8.02;;;13.70;90.50;;;;;;6275037;28;20056;-77
2023/06/02 03:47:44;;;;;;;12.15;8.63;;;13.70;90.60;;;;;;6274970;28;20037;-77
2023/06/02 03:50:46;;;;;;;14.13;10.15;;;13.60;90.80;;;;;;6274912;28;20056;-77
2023/06/02 03:53:49;;;;;;;14.30;11.02;;;13.60;91.10;;;;;;6275088;28;20049;-77
2023/06/02 03:56:52;;;;;;;10.48;8.68;;;13.60;91.40;;;;;;6275232;28;20048;-77
2023/06/02 03:59:53;;;;;;;12.13;8.82;;;13.60;91.50;;;;;;6274235;28;20525;-77
2023/06/02 04:02:57;;;;;;;12.18;9.00;;;13.70;91.50;;;;;;6275527;28;20049;-77
2023/06/02 04:05:59;;;;;;;12.02;8.05;;;13.60;91.60;;;;;;6274875;28;20514;-77
2023/06/02 04:09:01;;;;;;;9.98;8.65;;;13.70;91.90;;;;;;6273520;28;20420;-77
2023/06/02 04:12:04;;;;;;;13.30;8.70;;;13.70;91.90;;;;;;6274425;28;20037;-77
2023/06/02 04:15:07;;;;;;;11.50;8.65;;;13.70;92.10;;;;;;6274952;28;20499;-77
2023/06/02 04:18:09;;;;;;;15.93;8.85;;;13.80;92.20;;;;;;6273850;28;20127;-77
2023/06/02 04:21:10;;;;;;;10.35;8.52;;;13.90;92.40;;;;;;6273991;28;20052;-77
2023/06/02 04:24:12;;;;;;;11.43;8.85;;;14.20;92.60;;;;;;6274046;28;20041;-77
2023/06/02 04:27:17;;;;;;;12.20;8.15;;;14.40;91.90;;;;;;6274221;28;20051;-77
2023/06/02 04:30:19;;;;;;;8.90;7.63;;;14.50;92.00;;;;;;6274235;28;20049;-77
2023/06/02 04:33:21;;;;;;;9.85;8.10;;;14.60;91.40;;;;;;6274198;28;20045;-77
2023/06/02 04:36:23;;;;;;;12.70;9.05;;;14.60;91.70;;;;;;6273748;28;20048;-77
2023/06/02 04:39:25;;;;;;;12.52;8.75;;;14.50;91.50;;;;;;6265772;28;20056;-77
2023/06/02 04:42:28;;;;;;;10.75;8.20;;;14.60;91.50;;;;;;6249717;28;20056;-77
2023/06/02 04:45:30;;;;;;;15.02;8.32;;;14.80;91.50;;;;;;6260173;28;20047;-77
2023/06/02 04:48:31;;;;;;;11.32;8.57;;;14.90;91.40;;;;;;6265023;28;20190;-77
2023/06/02 04:51:33;;;;;;;9.27;8.27;;;15.10;91.10;;;;;;6270150;28;20049;-77
2023/06/02 04:54:35;;;;;;;9.25;7.78;;;15.10;91.00;;;;;;6274501;28;20514;-77
2023/06/02 04:57:38;;;;;;;8.80;7.47;;;15.40;91.20;;;;;;6273003;28;20049;-77
2023/06/02 05:00:40;;;;;;;9.13;8.05;;;15.90;90.70;;;;;;6273725;28;20041;-77
2023/06/02 05:03:42;;;;;;;9.35;7.03;;;16.10;89.70;;;;;;6273332;28;20055;-77
2023/06/02 05:06:43;;;;;;;11.00;6.22;;;16.40;89.20;;;;;;6273788;28;20052;-77
2023/06/02 05:09:45;;;;;;;8.30;6.47;;;16.60;88.50;;;;;;6271974;28;20060;-77
2023/06/02 05:12:49;;;;;;;7.53;6.70;;;16.90;86.80;;;;;;6273246;28;20499;-77
2023/06/02 05:15:51;;;;;;;8.80;6.65;;;17.10;85.70;;;;;;6272907;28;20387;-77
2023/06/02 05:18:53;;;;;;;9.90;8.82;;;17.30;84.70;;;;;;6272792;28;20049;-77
2023/06/02 05:21:54;;;;;;;7.65;6.93;;;17.50;84.00;;;;;;6273154;28;20052;-77
2023/06/02 05:24:56;;;;;;;9.13;7.25;;;17.60;82.50;;;;;;6272705;28;20049;-77
2023/06/02 05:28:00;;;;;;;12.13;7.63;;;17.60;82.10;;;;;;6272638;28;20052;-77
2023/06/02 05:31:02;;;;;;;8.15;6.60;;;17.60;82.90;;;;;;6273131;28;20511;-77
2023/06/02 05:34:03;;;;;;;7.55;6.00;;;18.10;82.10;;;;;;6273147;28;20087;-77
2023/06/02 05:37:05;;;;;;;8.32;5.85;;;18.70;80.10;;;;;;6272826;28;20076;-78
2023/06/02 05:40:08;;;;;;;7.07;6.38;;;19.40;76.70;;;;;;6272495;28;20041;-77
2023/06/02 05:43:11;;;;;;;18.85;6.00;;;19.90;74.50;;;;;;6276705;28;20058;-78
2023/06/02 05:46:13;;;;;;;10.88;5.38;;;20.50;72.00;;;;;;6278011;28;20045;-78
2023/06/02 05:49:14;;;;;;;6.47;5.35;;;21.00;70.20;;;;;;6278050;28;20048;-78
2023/06/02 05:52:16;;;;;;;5.50;5.00;;;21.50;68.20;;;;;;6279867;28;20048;-78
2023/06/02 05:55:18;;;;;;;7.65;5.50;;;22.20;66.90;;;;;;6278654;28;20058;-77
2023/06/02 05:58:21;;;;;;;6.82;5.88;;;22.90;64.60;;;;;;6278176;28;20064;-78
2023/06/02 06:01:22;;;;;;;5.50;4.95;;;23.60;62.60;;;;;;6279695;28;20053;-78
2023/06/02 06:04:24;;;;;;;5.57;4.57;;;24.20;60.70;;;;;;6278043;28;20049;-78
2023/06/02 06:07:26;;;;;;;7.55;4.97;;;24.60;59.20;;;;;;6274053;28;20052;-78
2023/06/02 06:10:27;;;;;;;7.07;5.75;;;25.00;57.90;;;;;;6277663;28;20049;-79
2023/06/02 06:13:30;;;;;;;6.20;4.75;;;25.20;56.30;;;;;;6227271;28;20060;-78
2023/06/02 06:16:32;;;;;;;7.28;5.80;;;25.30;55.50;;;;;;6258436;28;20053;-75
2023/06/02 06:19:34;;;;;;;5.88;4.63;;;25.30;55.00;;;;;;6247399;28;20060;-75
2023/06/02 06:22:36;;;;;;;6.70;4.60;;;25.50;55.00;;;;;;6248768;28;20049;-76
2023/06/02 06:25:38;;;;;;;7.18;4.68;;;25.90;54.10;;;;;;6249072;28;20045;-78
2023/06/02 06:28:44;;;;;;;6.93;4.43;;;26.10;53.50;;;;;;6253230;28;20049;-78
2023/06/02 06:31:46;;;;;;;9.23;5.55;;;26.00;52.40;;;;;;6254521;28;20126;-79
2023/06/02 06:34:47;;;;;;;7.05;6.35;;;25.20;52.30;;;;;;6257744;28;20076;-78
2023/06/02 06:37:49;;;;;;;5.57;4.97;;;24.00;53.60;;;;;;6259978;28;20045;-79
2023/06/02 06:40:51;;;;;;;8.23;5.53;;;23.00;55.10;;;;;;6257914;28;20051;-79
2023/06/02 06:43:54;;;;;;;7.63;5.07;;;22.40;56.20;;;;;;6259637;28;20045;-78
2023/06/02 06:46:56;;;;;;;7.20;5.28;;;21.80;57.20;;;;;;6255710;28;20049;-79
2023/06/02 06:49:58;;;;;;;12.23;5.00;;;21.30;58.20;;;;;;6261484;28;20064;-79
2023/06/02 06:52:59;;;;;;;8.80;6.55;;;21.10;59.00;;;;;;6264116;28;20056;-78
2023/06/02 06:56:02;;;;;;;6.15;5.55;;;20.90;59.70;;;;;;6263352;28;20117;-77
2023/06/02 06:59:05;;;;;;;7.25;6.50;;;20.70;60.80;;;;;;6262594;28;20049;-78
2023/06/02 07:02:07;;;;;;;8.13;6.07;;;20.50;60.50;;;;;;6263857;28;20068;-78
2023/06/02 07:05:09;;;;;;;8.88;5.28;;;20.30;61.30;;;;;;6262622;28;20472;-78
2023/06/02 07:08:11;;;;;;;7.82;5.50;;;20.20;61.50;;;;;;6262386;28;23111;-77
2023/06/02 07:11:13;;;;;;;9.20;5.93;;;20.10;61.90;;;;;;6259540;28;20468;-78
2023/06/02 07:14:16;;;;;;;6.22;5.60;;;20.20;62.20;;;;;;6250467;28;20057;-77
2023/06/02 07:17:18;;;;;;;7.90;5.70;;;20.10;62.50;;;;;;6254007;28;20112;-77
2023/06/02 07:20:19;;;;;;;7.05;5.75;;;20.10;62.80;;;;;;6250027;28;20057;-77
2023/06/02 07:23:21;;;;;;;8.10;6.20;;;20.10;62.90;;;;;;6257922;28;20076;-78
2023/06/02 07:26:23;;;;;;;12.98;5.63;;;20.10;63.20;;;;;;6254837;28;20046;-78
2023/06/02 07:29:26;;;;;;;9.38;6.68;;;20.20;63.40;;;;;;6249844;28;20052;-77
2023/06/02 07:32:28;;;;;;;8.95;5.97;;;20.30;63.50;;;;;;6254290;28;20048;-78
2023/06/02 07:35:29;;;;;;;5.90;5.30;;;20.30;63.00;;;;;;6252523;28;20053;-78
2023/06/02 07:38:31;;;;;;;7.28;5.50;;;20.30;63.00;;;;;;6255712;28;20050;-78
2023/06/02 07:41:33;;;;;;;9.13;5.38;;;20.40;63.30;;;;;;6257285;28;20056;-79
2023/06/02 07:44:36;;;;;;;6.47;5.72;;;20.50;63.20;;;;;;6249082;28;20068;-78
2023/06/02 07:47:37;;;;;;;8.30;5.65;;;20.40;63.00;;;;;;6252821;28;20053;-78
2023/06/02 07:50:39;;;;;;;6.13;5.53;;;20.30;63.50;;;;;;6251496;28;20052;-77
2023/06/02 07:53:41;;;;;;;8.48;5.32;;;20.30;63.60;;;;;;6256122;28;20072;-78
2023/06/02 07:56:43;;;;;;;6.45;5.15;;;20.50;63.50;;;;;;6254392;28;20048;-78
2023/06/02 07:59:46;;;;;;;7.47;4.88;;;20.60;63.30;;;;;;6252369;28;20042;-79
2023/06/02 08:02:48;;;;;;;7.50;6.78;;;20.80;63.10;;;;;;6252833;28;20041;-78
2023/06/02 08:05:50;;;;;;;11.95;6.75;;;20.90;62.90;;;;;;6250477;28;20068;-78
2023/06/02 08:08:52;;;;;;;7.55;6.80;;;20.90;62.80;;;;;;6246707;28;20530;-78
2023/06/02 08:11:53;;;;;;;7.85;6.10;;;21.00;62.60;;;;;;6249156;28;20052;-78
2023/06/02 08:14:56;;;;;;;8.38;5.63;;;21.10;62.50;;;;;;6248993;28;20486;-78
2023/06/02 08:17:58;;;;;;;7.57;6.20;;;21.20;62.10;;;;;;6253043;28;20124;-77
2023/06/02 08:21:00;;;;;;;10.80;5.53;;;21.10;61.90;;;;;;6247314;28;20418;-77
2023/06/02 08:24:02;;;;;;;6.80;5.70;;;21.10;62.20;;;;;;6253347;28;20044;-77
2023/06/02 08:27:04;;;;;;;8.88;6.07;;;21.20;62.00;;;;;;6248908;28;20491;-77
2023/06/02 08:30:09;;;;;;;9.90;6.25;;;21.30;61.80;;;;;;6249642;28;20488;-77
2023/06/02 08:33:11;;;;;;;11.30;6.40;;;21.40;61.70;;;;;;6249524;28;20783;-77
2023/06/02 08:36:17;;;;;;;8.90;6.40;;;21.60;61.50;;;;;;6253224;28;20664;-78
2023/06/02 08:39:18;;;;;;;11.73;6.35;;;21.70;61.00;;;;;;6249837;28;20076;-77
2023/06/02 08:42:22;;;;;;;8.52;6.75;;;21.80;60.80;;;;;;6253335;28;20148;-77
2023/06/02 08:45:25;;;;;;;7.40;6.72;;;21.90;60.50;;;;;;6261126;28;20128;-78
2023/06/02 08:48:28;;;;;;;9.88;6.55;;;21.80;60.60;;;;;;6260967;28;20406;-77
2023/06/02 08:51:36;;;;;;;12.48;5.97;;;21.80;60.40;;;;;;6272022;28;20072;-77
2023/06/02 08:54:39;;;;;;;8.82;6.47;;;21.80;60.40;;;;;;6270269;28;20139;-77
2023/06/02 08:57:40;;;;;;;11.18;5.72;;;22.00;60.30;;;;;;6272140;28;20052;-77
2023/06/02 09:00:43;;;;;;;16.50;6.57;;;22.10;60.00;;;;;;6273887;28;20048;-77
2023/06/02 09:03:47;;;;;;;10.85;6.10;;;22.30;59.70;;;;;;6273769;28;20048;-77
2023/06/02 09:06:49;;;;;;;11.10;6.35;;;22.40;59.60;;;;;;6280140;28;20051;-78
2023/06/02 09:09:53;;;;;;;6.55;5.13;;;22.50;59.20;;;;;;6282741;28;20041;-77
2023/06/02 09:12:55;;;;;;;8.75;6.45;;;22.50;59.00;;;;;;6281771;28;20056;-77
2023/06/02 09:16:00;;;;;;;6.90;6.20;;;22.50;59.10;;;;;;6280498;28;20045;-78
2023/06/02 09:19:02;;;;;;;9.80;7.78;;;22.50;59.10;;;;;;6282900;28;20056;-77
2023/06/02 09:22:05;;;;;;;8.60;5.78;;;22.50;58.50;;;;;;6280830;28;20041;-77
2023/06/02 09:25:21;;;;;;;8.32;5.63;;;22.40;58.90;;;;;;6272660;28;20418;-77
2023/06/02 09:28:25;;;;;;;9.73;6.05;;;22.40;58.90;;;;;;6271906;28;20048;-77
2023/06/02 09:31:45;;;;;;;14.80;7.45;;;22.60;58.90;;;;;;6274605;28;20055;-78
2023/06/02 09:34:48;;;;;;;10.82;7.20;;;22.70;58.20;;;;;;6277531;28;20053;-78
2023/06/02 09:37:57;;;;;;;7.18;6.13;;;22.80;58.10;;;;;;6276001;28;20499;-76
2023/06/02 09:41:15;;;;;;;5.88;5.38;;;22.90;57.50;;;;;;6271234;28;20175;-78
2023/06/02 09:44:19;;;;;;;;;;;23.10;57.50;;;;;;6277310;28;20045;-77
2023/06/02 09:47:26;;;;;;;8.40;5.63;;;23.20;57.50;;;;;;6275267;28;20026;-78
2023/06/02 09:50:33;;;;;;;7.25;5.80;;;23.40;56.90;;;;;;6256561;28;20466;-77
2023/06/02 09:53:35;;;;;;;11.75;5.53;;;23.50;56.70;;;;;;6265182;28;20430;-77
2023/06/02 09:56:37;;;;;;;7.85;7.05;;;23.60;56.40;;;;;;6267158;28;20174;-77
2023/06/02 09:59:39;;;;;;;9.00;7.20;;;23.60;56.00;;;;;;6264577;28;20056;-78
2023/06/02 10:02:42;;;;;;;7.63;6.55;;;23.60;55.60;;;;;;6267013;28;20431;-78
2023/06/02 10:05:51;;;;;;;12.07;5.57;;;23.50;55.60;;;;;;6266897;28;20049;-78
2023/06/02 10:09:06;;;;;;;7.88;5.53;;;23.50;55.70;;;;;;6266684;28;20044;-78
2023/06/02 10:12:19;;;;;;;7.53;6.25;;;23.80;55.50;;;;;;6267110;28;20106;-76
2023/06/02 10:15:44;;;;;;;7.90;5.82;;;24.10;55.10;;;;;;6267122;28;20048;-78
2023/06/02 10:19:30;;;;;;;10.88;5.72;;;24.30;54.30;;;;;;6266606;28;20045;-78
2023/06/02 10:22:54;;;;;;;9.23;7.05;;;24.40;54.20;;;;;;6252593;28;20114;-77
2023/06/02 10:26:23;;;;;;;7.72;5.70;;;24.60;53.70;;;;;;6261164;28;20064;-78
2023/06/02 10:29:25;;;;;;;9.60;5.13;;;24.70;53.00;;;;;;6265516;28;20050;-78
2023/06/02 10:32:33;;;;;;;10.35;5.95;;;24.70;52.90;;;;;;6264342;28;20059;-76
2023/06/02 10:35:58;;;;;;;6.72;4.82;;;24.70;52.50;;;;;;6266246;28;20051;-76
2023/06/02 10:39:45;;;;;;;7.72;4.75;;;24.90;52.80;;;;;;6267175;28;20561;-78
2023/06/02 10:43:10;;;;;;;10.82;5.82;;;25.40;52.30;;;;;;6267067;28;20483;-77
2023/06/02 10:46:20;;;;;;;8.90;6.10;;;25.80;51.00;;;;;;6267219;28;20049;-78
2023/06/02 10:49:53;;;;;;;6.85;5.68;;;26.00;50.70;;;;;;6264544;28;20191;-78
2023/06/02 10:53:09;;;;;;;7.53;6.03;;;25.90;50.10;;;;;;6266972;28;20060;-77
2023/06/02 10:56:40;;;;;;;7.93;4.93;;;26.00;50.20;;;;;;6267384;28;20049;-78
2023/06/02 10:59:42;;;;;;;5.82;4.32;;;25.80;50.40;;;;;;6266241;28;20092;-75
2023/06/02 11:02:45;;;;;;;11.57;5.53;;;26.10;50.30;;;;;;6266190;28;20405;-78
2023/06/02 11:05:49;;;;;;;7.43;5.85;;;26.50;49.90;;;;;;6267102;28;20051;-79
2023/06/02 11:08:53;;;;;;;7.45;4.35;;;26.80;48.40;;;;;;6265756;28;20103;-77
2023/06/02 11:11:54;;;;;;;9.20;6.38;;;26.70;48.90;;;;;;6267470;28;20105;-79
2023/06/02 11:15:15;;;;;;;5.03;4.53;;;26.80;49.00;;;;;;6266196;28;20117;-78
2023/06/02 11:18:42;;;;;;;5.13;4.60;;;27.30;48.70;;;;;;6265013;28;20500;-77
2023/06/02 11:21:44;;;;;;;6.78;4.75;;;27.80;48.00;;;;;;6265279;28;20045;-79
2023/06/02 11:24:49;;;;;;;7.70;4.30;;;28.00;47.50;;;;;;6268412;28;20060;-78
2023/06/02 11:27:51;;;;;;;8.35;5.35;;;28.10;47.20;;;;;;6265217;28;20049;-79
2023/06/02 11:31:07;;;;;;;7.45;4.70;;;28.40;47.00;;;;;;6266608;28;20065;-78
2023/06/02 11:34:16;;;;;;;6.63;4.35;;;28.50;46.30;;;;;;6263731;28;20691;-79
2023/06/02 11:37:20;;;;;;;6.45;4.35;;;28.40;46.00;;;;;;6267357;28;20060;-77
2023/06/02 11:40:28;;;;;;;7.68;3.90;;;28.30;46.30;;;;;;6268598;28;20048;-78
2023/06/02 11:43:30;;;;;;;7.85;4.28;;;28.30;46.10;;;;;;6266122;28;20514;-78
2023/06/02 11:46:31;;;;;;;6.50;4.25;;;28.20;46.30;;;;;;6265724;28;20052;-79
2023/06/02 11:49:37;;;;;;;6.32;4.70;;;28.30;46.20;;;;;;6265036;28;20079;-78
2023/06/02 11:52:40;;;;;;;5.65;4.30;;;28.50;45.60;;;;;;6266167;28;20056;-79
2023/06/02 11:55:44;;;;;;;6.85;4.95;;;28.70;45.40;;;;;;6266185;28;20048;-77
2023/06/02 11:58:46;;;;;;;9.15;3.80;;;28.80;45.10;;;;;;6273347;28;20060;-79
2023/06/02 12:01:49;;;;;;;7.28;4.07;;;29.10;44.90;;;;;;6259761;28;21276;-78
2023/06/02 12:04:50;;;;;;;7.57;3.75;;;29.40;44.40;;;;;;6251738;28;20049;-78
2023/06/02 12:07:52;;;;;;;8.75;4.07;;;29.40;44.10;;;;;;6245935;28;20060;-77
2023/06/02 12:10:55;;;;;;;5.25;4.18;;;29.40;44.00;;;;;;6253497;28;20395;-76
2023/06/02 12:13:58;;;;;;;10.30;4.05;;;29.50;43.60;;;;;;6255268;28;20050;-78
2023/06/02 12:17:04;;;;;;;6.78;3.83;;;29.50;43.40;;;;;;6255513;28;20049;-77
2023/06/02 12:20:07;;;;;;;7.32;4.55;;;29.30;43.20;;;;;;6252204;28;20128;-78
2023/06/02 12:23:10;;;;;;;7.60;4.20;;;29.30;43.00;;;;;;6250299;28;20049;-77
2023/06/02 12:26:13;;;;;;;14.00;5.50;;;29.30;43.20;;;;;;6252763;28;20045;-78
2023/06/02 12:29:15;;;;;;;5.38;3.88;;;29.40;43.00;;;;;;6253016;28;20365;-77
2023/06/02 12:32:26;;;;;;;11.02;4.82;;;29.30;42.80;;;;;;6254057;28;20439;-78
2023/06/02 12:35:27;;;;;;;8.73;4.47;;;29.30;42.90;;;;;;6256479;28;20041;-79
2023/06/02 12:38:29;;;;;;;6.90;4.53;;;29.40;42.90;;;;;;6254060;28;20063;-78
2023/06/02 12:41:32;;;;;;;8.27;4.43;;;29.50;42.90;;;;;;6256879;28;20057;-77
2023/06/02 12:44:34;;;;;;;8.25;4.25;;;29.40;42.70;;;;;;6254620;28;20135;-76
2023/06/02 12:47:36;;;;;;;9.85;4.50;;;29.20;42.90;;;;;;6255097;28;20068;-77
2023/06/02 12:50:38;;;;;;;7.82;4.18;;;29.40;42.70;;;;;;6253900;28;20404;-77
2023/06/02 12:53:40;;;;;;;7.10;3.97;;;29.60;42.40;;;;;;6245847;28;20513;-77
2023/06/02 12:56:43;;;;;;;5.13;3.83;;;29.70;42.00;;;;;;6250608;28;20079;-77
2023/06/02 12:59:45;;;;;;;6.15;3.42;;;29.60;41.90;;;;;;6250864;28;20060;-77
2023/06/02 13:02:46;;;;;;;7.78;4.07;;;29.70;42.10;;;;;;6244373;28;20401;-76
2023/06/02 13:05:57;;;;;;;7.63;4.10;;;29.90;41.80;;;;;;6251008;28;20518;-77
2023/06/02 13:08:59;;;;;;;7.65;4.97;;;29.90;41.50;;;;;;6250739;28;20053;-76
2023/06/02 13:12:02;;;;;;;5.95;4.00;;;30.00;41.60;;;;;;6250259;28;20053;-77
2023/06/02 13:15:05;;;;;;;8.68;4.70;;;29.90;41.80;;;;;;6250442;28;20491;-75
2023/06/02 13:18:07;;;;;;;10.63;4.72;;;30.00;41.60;;;;;;6246615;28;20063;-76
2023/06/02 13:21:09;;;;;;;11.77;4.30;;;30.10;41.70;;;;;;6248537;28;20059;-77
2023/06/02 13:24:11;;;;;;;7.05;4.18;;;30.10;41.40;;;;;;6245789;28;20068;-76
2023/06/02 13:27:14;;;;;;;5.30;4.18;;;30.00;41.10;;;;;;6248733;28;20049;-76
2023/06/02 13:30:17;;;;;;;3.83;3.47;;;29.90;41.50;;;;;;6248576;28;20052;-76
2023/06/02 13:33:18;;;;;;;7.38;4.93;;;30.00;41.60;;;;;;6249140;28;20574;-76
2023/06/02 13:36:20;;;;;;;7.90;3.58;;;30.00;41.40;;;;;;6248027;28;20049;-75
2023/06/02 13:39:22;;;;;;;8.95;4.65;;;30.10;41.30;;;;;;6245984;28;20063;-76
2023/06/02 13:42:25;;;;;;;8.18;4.13;;;30.20;41.40;;;;;;6248828;28;20060;-76
2023/06/02 13:45:26;;;;;;;8.45;4.47;;;30.20;41.10;;;;;;6248869;28;20137;-76
2023/06/02 13:48:28;;;;;;;6.43;3.38;;;30.20;40.90;;;;;;6248795;28;20045;-75
2023/06/02 13:51:30;;;;;;;5.68;3.63;;;30.10;40.50;;;;;;6246601;28;20056;-75
2023/06/02 13:54:31;;;;;;;4.10;3.70;;;29.80;41.00;;;;;;6248263;28;20068;-76
2023/06/02 13:57:36;;;;;;;7.72;4.18;;;29.80;41.30;;;;;;6248615;28;20370;-76
2023/06/02 14:00:40;;;;;;;7.40;3.30;;;29.90;40.90;;;;;;6246548;28;20049;-77
2023/06/02 14:03:42;;;;;;;7.25;4.55;;;30.00;41.20;;;;;;6247560;28;20612;-76
2023/06/02 14:06:43;;;;;;;8.40;3.90;;;30.10;41.00;;;;;;6249429;28;20163;-76
2023/06/02 14:09:45;;;;;;;5.18;3.72;;;30.20;40.70;;;;;;6247851;28;20048;-77
2023/06/02 14:12:48;;;;;;;5.82;4.13;;;30.20;40.90;;;;;;6247934;28;20080;-75
2023/06/02 14:15:50;;;;;;;7.13;3.72;;;30.30;40.70;;;;;;6248892;28;20049;-76
2023/06/02 14:18:52;;;;;;;10.65;3.35;;;30.30;40.80;;;;;;6244766;28;20048;-77
2023/06/02 14:21:54;;;;;;;4.38;3.67;;;30.40;40.60;;;;;;6245101;28;20056;-76
2023/06/02 14:24:56;;;;;;;4.57;3.20;;;30.60;40.50;;;;;;6250534;28;20503;-77
2023/06/02 14:27:59;;;;;;;4.70;4.28;;;30.50;40.20;;;;;;6248617;28;21364;-77
2023/06/02 14:31:00;;;;;;;10.02;3.95;;;30.60;40.10;;;;;;6247410;28;20443;-77
2023/06/02 14:34:02;;;;;;;6.13;3.90;;;30.60;40.00;;;;;;6246363;28;20069;-77
2023/06/02 14:37:04;;;;;;;5.68;3.15;;;30.40;40.00;;;;;;6242767;28;20059;-77
2023/06/02 14:40:08;;;;;;;3.95;3.35;;;30.50;40.40;;;;;;6244918;28;20053;-77
2023/06/02 14:43:10;;;;;;;10.27;4.30;;;30.40;40.20;;;;;;6242846;28;20041;-77
2023/06/02 14:46:12;;;;;;;4.05;3.40;;;30.50;40.40;;;;;;6246089;28;20049;-77
2023/06/02 14:49:14;;;;;;;5.20;3.80;;;30.50;40.40;;;;;;6248041;28;20045;-77
2023/06/02 14:52:16;;;;;;;4.18;3.42;;;30.60;40.30;;;;;;6249516;28;20045;-77
2023/06/02 14:55:17;;;;;;;5.10;3.53;;;30.70;40.10;;;;;;6241539;28;20060;-78
2023/06/02 14:58:20;;;;;;;9.38;3.60;;;30.90;40.10;;;;;;6247866;28;20057;-77
2023/06/02 15:01:22;;;;;;;9.85;3.00;;;30.90;39.80;;;;;;6247624;28;20491;-77
2023/06/02 15:04:24;;;;;;;5.50;3.50;;;30.90;39.60;;;;;;6245628;28;20037;-76
2023/06/02 15:07:26;;;;;;;5.70;3.47;;;30.90;39.60;;;;;;6242189;28;20072;-76
2023/06/02 15:10:28;;;;;;;5.05;2.90;;;30.70;39.70;;;;;;6250816;28;20044;-76
2023/06/02 15:13:31;;;;;;;5.07;3.03;;;30.60;39.80;;;;;;6254342;28;20060;-78
2023/06/02 15:16:34;;;;;;;5.78;3.13;;;30.40;40.00;;;;;;6252070;28;20368;-77
2023/06/02 15:19:36;;;;;;;6.10;2.95;;;30.00;40.50;;;;;;6246922;28;20045;-77
2023/06/02 15:22:38;;;;;;;7.80;3.70;;;29.80;40.90;;;;;;6251477;28;20057;-77
2023/06/02 15:25:39;;;;;;;6.57;3.58;;;29.80;40.90;;;;;;6255713;28;20060;-76
2023/06/02 15:28:42;;;;;;;9.13;3.58;;;30.00;40.80;;;;;;6255820;28;20059;-76
2023/06/02 15:31:44;;;;;;;12.45;4.40;;;29.90;40.50;;;;;;6259764;28;20049;-77
2023/06/02 15:34:46;;;;;;;5.43;3.35;;;29.80;40.50;;;;;;6246147;28;20057;-77
2023/06/02 15:37:48;;;;;;;7.95;4.43;;;29.80;40.70;;;;;;6249610;28;20049;-76
2023/06/02 15:40:50;;;;;;;6.75;3.70;;;29.70;40.90;;;;;;6247867;28;20037;-76
2023/06/02 15:43:53;;;;;;;6.22;3.50;;;29.50;41.00;;;;;;6248064;28;20073;-76
2023/06/02 15:46:54;;;;;;;5.80;2.88;;;29.40;41.20;;;;;;6248508;28;20057;-76
2023/06/02 15:49:56;;;;;;;4.90;3.67;;;29.30;41.30;;;;;;6250031;28;20037;-77
2023/06/02 15:52:58;;;;;;;6.20;3.95;;;29.20;41.30;;;;;;6252746;28;20140;-77